Portada
METAR-TAF:

METAR-TAF

Aeroports :

Yap, Micronèsia

latitud: 09-29N, longitud: 138-05E, altitud: 28 m

Observació

L'informe es va fer fa 58 minuts, a les 17:50 UTC
Vent 10 kt del Oest/Sud-Oest
Temperatura 29°C
Humitat 79%
Pressió 1007 hPa
Visibilitat: 19.3 km
Escasses núvols a una alçada de 1700 ft
Núvols disperses a una alçada de 13000 ft
Cel cobert a una alçada de 30000 ft

METAR: PTYA 231750Z 24010KT 12SM FEW017 SCT130 OVC300 29/25 A2975 RMK SLP076 8/128 T02860253 10286 20284 56008

Hora: 04:48 (18:48 UTC)

Pronòstic

L'informe es va fer fa 1 hora i 18 minuts, a les 17:30 UTC
Pronòstic vàlid del 23 a les 18 UTC al 24 a les 18 UTC
Vent 10 kt del Sud-Oest
Visibilitat: 10 km
Núvols disperses a una alçada de 1800 ft
Cel ennuvolat a una alçada de 13000 ft
xàfecs en les proximitats

TAF: PTYA 231730Z 2318/2418 23010KT P6SM VCSH SCT018 BKN130

Observacions i pronòstics meteorològics de més de 4000 aeroports (METAR i TAF).

Les estacions disponibles són els punts grocs i vermells al mapa.

Posi el ratolí al punt desitjat per veure el nom de l'estació.

Feu clic per veure les observacions i els pronòstics meteorològics.

Per canviar el mapa: feu clic els botons verds amb una creu de color negre per apropar; al botó verd amb un guió per allunyar la imatge; o en les fletxes verdes per a mapes adjacents.


METAR-TAF: